Time;durP1;ratioP1;P1;durP2;ratioP2;P2;SDS_P1;SDS_P2;PMS_P1;PMS_P2;Temp;Humidity;BMP_temperature;BMP_pressure;BME280_temperature;BME280_humidity;BME280_pressure;Samples;Min_cycle;Max_cycle;Signal;HPM_P1;HPM_P2
2022/10/31 00:01:27;;;;;;;3.00;1.83;;;21.00;91.40;;;;;;6152165;23;45425;-68
2022/10/31 00:03:54;;;;;;;1.75;1.58;;;21.00;91.40;;;;;;6151345;23;45238;-68
2022/10/31 00:06:21;;;;;;;2.80;1.60;;;21.00;91.40;;;;;;6151283;23;45361;-68
2022/10/31 00:08:52;;;;;;;3.67;1.50;;;21.00;91.40;;;;;;6151520;23;45233;-68
2022/10/31 00:11:18;;;;;;;2.58;1.63;;;21.00;91.50;;;;;;6151518;23;45285;-68
2022/10/31 00:13:45;;;;;;;1.85;1.50;;;21.00;91.40;;;;;;6152065;23;45245;-68
2022/10/31 00:16:18;;;;;;;2.50;1.80;;;21.00;91.40;;;;;;6151086;23;45347;-68
2022/10/31 00:18:48;;;;;;;1.60;1.38;;;21.00;91.40;;;;;;6152098;23;45313;-68
2022/10/31 00:21:15;;;;;;;2.30;1.50;;;21.00;91.40;;;;;;6151665;23;45334;-68
2022/10/31 00:23:42;;;;;;;4.07;1.70;;;21.00;91.40;;;;;;6151845;23;48274;-68
2022/10/31 00:26:09;;;;;;;3.83;1.50;;;21.00;91.40;;;;;;6150977;23;45242;-68
2022/10/31 00:28:36;;;;;;;2.47;1.48;;;20.90;91.40;;;;;;6152444;23;45363;-68
2022/10/31 00:31:03;;;;;;;3.20;1.63;;;21.00;91.40;;;;;;6152003;23;45518;-68
2022/10/31 00:33:33;;;;;;;2.65;1.70;;;21.00;91.40;;;;;;6150859;23;45394;-68
2022/10/31 00:36:00;;;;;;;2.13;1.30;;;21.00;91.40;;;;;;6150955;23;45167;-68
2022/10/31 00:38:27;;;;;;;2.30;1.42;;;21.00;91.40;;;;;;6150855;23;45299;-68
2022/10/31 00:40:54;;;;;;;1.65;1.30;;;21.00;91.40;;;;;;6152213;23;45654;-69
2022/10/31 00:43:20;;;;;;;1.55;1.38;;;21.00;91.40;;;;;;6150971;23;48459;-68
2022/10/31 00:45:47;;;;;;;2.60;1.67;;;21.00;91.30;;;;;;6148293;23;45206;-68
2022/10/31 00:48:14;;;;;;;1.70;1.23;;;21.00;91.30;;;;;;6149751;23;45552;-68
2022/10/31 00:50:43;;;;;;;3.38;1.85;;;21.00;91.30;;;;;;6152582;23;45484;-68
2022/10/31 00:53:10;;;;;;;2.30;1.58;;;21.00;91.40;;;;;;6150719;23;48353;-68
2022/10/31 00:55:37;;;;;;;3.92;1.73;;;21.00;91.40;;;;;;6151993;23;45339;-69
2022/10/31 00:58:05;;;;;;;1.75;1.40;;;21.00;91.40;;;;;;6153338;23;45248;-68
2022/10/31 01:00:31;;;;;;;3.00;1.60;;;21.00;91.40;;;;;;6153376;23;45301;-68
2022/10/31 01:02:58;;;;;;;3.03;1.75;;;21.00;91.40;;;;;;6152346;23;48037;-69
2022/10/31 01:05:25;;;;;;;1.88;1.33;;;21.00;91.40;;;;;;6152235;23;45348;-68
2022/10/31 01:07:53;;;;;;;2.72;1.75;;;20.90;91.40;;;;;;6152656;23;45333;-68
2022/10/31 01:10:20;;;;;;;3.22;1.70;;;20.90;91.50;;;;;;6153092;23;45221;-68
2022/10/31 01:12:49;;;;;;;3.13;1.70;;;21.00;91.40;;;;;;6153111;23;46245;-68
2022/10/31 01:15:18;;;;;;;2.17;1.35;;;21.00;91.40;;;;;;6152236;23;46277;-69
2022/10/31 01:17:45;;;;;;;3.03;1.83;;;21.00;91.40;;;;;;6153713;23;45340;-68
2022/10/31 01:20:14;;;;;;;3.22;1.77;;;21.00;91.30;;;;;;6152629;23;45213;-69
2022/10/31 01:22:41;;;;;;;2.88;1.65;;;20.90;91.30;;;;;;6153213;23;45456;-68
2022/10/31 01:25:10;;;;;;;3.78;1.70;;;21.00;91.30;;;;;;6151659;23;45404;-69
2022/10/31 01:27:37;;;;;;;3.08;1.80;;;21.00;91.30;;;;;;6153021;23;45281;-68
2022/10/31 01:30:05;;;;;;;3.35;1.80;;;21.00;91.30;;;;;;6153388;23;45326;-68
2022/10/31 01:32:32;;;;;;;3.85;1.73;;;21.00;91.30;;;;;;6152313;23;46557;-68
2022/10/31 01:34:58;;;;;;;2.22;1.50;;;21.00;91.30;;;;;;6152414;23;45583;-68
2022/10/31 01:37:25;;;;;;;3.50;1.75;;;21.00;91.30;;;;;;6153006;23;45358;-68
2022/10/31 01:39:52;;;;;;;4.38;1.58;;;21.00;91.30;;;;;;6152076;23;45402;-68
2022/10/31 01:42:22;;;;;;;2.65;1.50;;;21.00;91.30;;;;;;6152825;23;45423;-68
2022/10/31 01:45:02;;;;;;;2.67;1.67;;;21.00;91.30;;;;;;6151511;23;45310;-68
2022/10/31 01:47:39;;;;;;;3.47;1.65;;;21.00;91.30;;;;;;6151712;23;45252;-69
2022/10/31 01:50:13;;;;;;;3.78;1.80;;;21.00;91.30;;;;;;6152483;23;45321;-71
2022/10/31 01:52:43;;;;;;;3.45;1.63;;;21.00;91.30;;;;;;6152057;23;47358;-68
2022/10/31 01:55:13;;;;;;;2.35;1.70;;;21.00;91.30;;;;;;6151756;23;46252;-69
2022/10/31 01:57:45;;;;;;;2.22;1.42;;;21.00;91.30;;;;;;6152561;23;45362;-69
2022/10/31 02:00:13;;;;;;;2.25;1.75;;;21.00;91.40;;;;;;6152702;23;45480;-68
2022/10/31 02:02:40;;;;;;;2.20;1.60;;;21.00;91.30;;;;;;6152365;23;45318;-68
2022/10/31 02:05:11;;;;;;;2.85;1.67;;;20.90;91.30;;;;;;6152083;23;45345;-69
2022/10/31 02:07:43;;;;;;;2.00;1.40;;;20.90;91.30;;;;;;6152177;23;45194;-68
2022/10/31 02:10:10;;;;;;;3.00;1.65;;;21.00;91.30;;;;;;6153347;23;45442;-68
2022/10/31 02:12:37;;;;;;;3.05;1.60;;;21.00;91.30;;;;;;6152799;23;47059;-68
2022/10/31 02:15:06;;;;;;;2.63;1.85;;;20.90;91.20;;;;;;6151649;23;45290;-68
2022/10/31 02:17:34;;;;;;;2.78;1.90;;;21.00;91.20;;;;;;6152608;23;45369;-68
2022/10/31 02:20:12;;;;;;;2.70;1.70;;;21.00;91.20;;;;;;6152600;23;45405;-69
2022/10/31 02:22:45;;;;;;;2.88;1.73;;;21.00;91.20;;;;;;6152892;23;46267;-68
2022/10/31 02:25:36;;;;;;;4.88;1.80;;;21.00;91.20;;;;;;6151435;23;45370;-69
2022/10/31 02:28:31;;;;;;;4.45;1.75;;;21.00;91.20;;;;;;6153460;23;45257;-69
2022/10/31 02:31:16;;;;;;;4.05;1.70;;;20.90;91.10;;;;;;6152047;23;45356;-68
2022/10/31 02:33:47;;;;;;;3.58;1.85;;;21.00;91.10;;;;;;6152285;23;47417;-68
2022/10/31 02:36:27;;;;;;;2.97;1.98;;;20.90;91.10;;;;;;6152246;23;45361;-69
2022/10/31 02:39:11;;;;;;;3.33;1.63;;;21.00;91.20;;;;;;6152817;23;45289;-69
2022/10/31 02:41:47;;;;;;;2.20;1.70;;;21.00;91.20;;;;;;6153252;23;45189;-68
2022/10/31 02:44:23;;;;;;;2.53;1.75;;;21.00;91.20;;;;;;6151828;23;45410;-69
2022/10/31 02:46:56;;;;;;;2.65;1.80;;;21.00;91.20;;;;;;6151020;23;45218;-69
2022/10/31 02:49:28;;;;;;;4.10;1.98;;;20.90;91.20;;;;;;6150589;23;45282;-69
2022/10/31 02:51:55;;;;;;;2.15;1.38;;;21.00;91.20;;;;;;6152553;23;45213;-69
2022/10/31 02:54:25;;;;;;;2.65;1.50;;;21.00;91.20;;;;;;6152017;23;47338;-69
2022/10/31 02:56:57;;;;;;;2.53;1.70;;;20.90;91.20;;;;;;6151665;23;46141;-69
2022/10/31 02:59:24;;;;;;;2.45;1.40;;;21.00;91.30;;;;;;6153223;23;45397;-68
2022/10/31 03:02:18;;;;;;;2.72;1.58;;;20.90;91.20;;;;;;6152358;23;45392;-68
2022/10/31 03:05:23;;;;;;;2.53;1.77;;;21.00;91.20;;;;;;6151813;23;45338;-69
2022/10/31 03:07:58;;;;;;;2.13;1.67;;;21.00;91.20;;;;;;6031846;23;45353;-69
2022/10/31 03:10:35;;;;;;;1.95;1.70;;;21.00;91.20;;;;;;6128972;23;45391;-68
2022/10/31 03:13:09;;;;;;;2.42;1.70;;;21.00;91.20;;;;;;6152449;23;45450;-69
2022/10/31 03:15:41;;;;;;;4.35;1.58;;;20.90;91.10;;;;;;6151456;23;45309;-70
2022/10/31 03:18:12;;;;;;;3.08;1.98;;;21.00;91.10;;;;;;6151989;23;45250;-69
2022/10/31 03:20:42;;;;;;;3.25;1.77;;;20.90;91.10;;;;;;6152608;23;45169;-69
2022/10/31 03:23:12;;;;;;;2.88;1.90;;;21.00;91.10;;;;;;6152725;23;45294;-69
2022/10/31 03:25:41;;;;;;;2.83;1.67;;;21.00;91.10;;;;;;6151088;23;47340;-69
2022/10/31 03:28:09;;;;;;;2.70;1.73;;;21.00;91.20;;;;;;6152331;23;45234;-68
2022/10/31 03:30:39;;;;;;;2.85;1.58;;;21.00;91.10;;;;;;6151977;23;45402;-69
2022/10/31 03:33:13;;;;;;;2.58;1.80;;;21.00;91.10;;;;;;6152433;23;45455;-69
2022/10/31 03:35:43;;;;;;;3.28;1.60;;;20.90;91.20;;;;;;6151445;23;47097;-69
2022/10/31 03:38:12;;;;;;;2.97;1.90;;;20.90;91.10;;;;;;6152141;23;45431;-69
2022/10/31 03:40:41;;;;;;;4.22;1.75;;;20.90;91.20;;;;;;6152895;23;45258;-69
2022/10/31 03:43:11;;;;;;;3.97;1.90;;;20.90;91.20;;;;;;6151522;23;45506;-69
2022/10/31 03:45:43;;;;;;;3.58;1.73;;;20.90;91.20;;;;;;6149637;23;45299;-69
2022/10/31 03:48:13;;;;;;;4.38;1.77;;;20.90;91.20;;;;;;6152056;23;45386;-68
2022/10/31 03:50:46;;;;;;;1.58;1.45;;;20.90;91.20;;;;;;6151735;23;45521;-68
2022/10/31 03:53:17;;;;;;;4.45;1.60;;;20.90;91.20;;;;;;6152606;23;45364;-68
2022/10/31 03:55:50;;;;;;;2.85;2.05;;;20.90;91.20;;;;;;6151281;23;46055;-68
2022/10/31 03:58:22;;;;;;;5.65;1.70;;;20.90;91.10;;;;;;6151943;23;45366;-68
2022/10/31 04:00:52;;;;;;;2.25;1.33;;;20.90;91.10;;;;;;6151916;23;45196;-68
2022/10/31 04:03:23;;;;;;;2.40;1.70;;;20.90;91.10;;;;;;6152375;23;45411;-68
2022/10/31 04:05:52;;;;;;;2.78;1.80;;;20.90;91.10;;;;;;6150850;23;45490;-68
2022/10/31 04:08:24;;;;;;;4.40;2.08;;;20.90;91.10;;;;;;6152266;23;45289;-68
2022/10/31 04:10:53;;;;;;;2.80;1.42;;;20.90;91.10;;;;;;6152366;23;45350;-68
2022/10/31 04:13:23;;;;;;;2.70;1.63;;;21.00;91.10;;;;;;6152217;23;45379;-68
2022/10/31 04:15:53;;;;;;;2.75;1.65;;;20.90;91.00;;;;;;6151570;23;47389;-68
2022/10/31 04:18:21;;;;;;;4.43;1.58;;;20.90;91.00;;;;;;6151213;23;45250;-69
2022/10/31 04:20:49;;;;;;;2.95;1.80;;;20.90;91.00;;;;;;6152372;23;45238;-68
2022/10/31 04:23:20;;;;;;;2.30;1.50;;;20.90;90.90;;;;;;6152542;23;45240;-68
2022/10/31 04:25:47;;;;;;;4.70;1.90;;;20.90;91.00;;;;;;6152680;23;45174;-68
2022/10/31 04:28:13;;;;;;;2.35;1.48;;;20.90;91.00;;;;;;6151323;23;45176;-68
2022/10/31 04:30:40;;;;;;;2.60;1.73;;;20.90;90.90;;;;;;6152348;23;45262;-68
2022/10/31 04:33:07;;;;;;;4.07;1.85;;;20.90;90.90;;;;;;6153092;23;45324;-68
2022/10/31 04:35:35;;;;;;;2.88;1.73;;;20.90;90.90;;;;;;6152023;23;47502;-69
2022/10/31 04:38:02;;;;;;;3.25;1.80;;;20.90;91.00;;;;;;6153129;23;45150;-68
2022/10/31 04:40:29;;;;;;;4.10;1.60;;;20.90;90.90;;;;;;6153070;23;45428;-68
2022/10/31 04:42:55;;;;;;;2.53;1.83;;;20.90;90.90;;;;;;6153493;23;45394;-69
2022/10/31 04:45:22;;;;;;;3.60;1.65;;;20.90;90.90;;;;;;6150852;23;45512;-69
2022/10/31 04:47:49;;;;;;;3.08;1.90;;;20.90;90.90;;;;;;6152452;23;45325;-69
2022/10/31 04:50:16;;;;;;;3.50;2.17;;;20.90;90.90;;;;;;6151374;23;45210;-69
2022/10/31 04:52:46;;;;;;;3.28;1.85;;;20.90;90.90;;;;;;6151833;23;45227;-69
2022/10/31 04:55:14;;;;;;;3.00;1.80;;;20.90;90.80;;;;;;6150604;23;46134;-68
2022/10/31 04:57:45;;;;;;;2.85;1.60;;;20.90;90.80;;;;;;6152309;23;45359;-66
2022/10/31 05:00:14;;;;;;;2.17;1.65;;;20.90;90.80;;;;;;6151116;23;45401;-68
2022/10/31 05:02:45;;;;;;;1.98;1.65;;;20.90;90.80;;;;;;6152246;23;45410;-69
2022/10/31 05:05:12;;;;;;;2.13;1.50;;;20.90;90.80;;;;;;6151382;23;48399;-69
2022/10/31 05:07:40;;;;;;;2.78;1.80;;;20.90;90.80;;;;;;6152134;23;45401;-68
2022/10/31 05:10:10;;;;;;;2.17;1.48;;;21.00;90.80;;;;;;6152562;23;45412;-69
2022/10/31 05:12:37;;;;;;;4.50;1.52;;;20.90;90.70;;;;;;6153354;23;45544;-68
2022/10/31 05:15:05;;;;;;;3.50;1.85;;;20.90;90.80;;;;;;6152677;23;45222;-68
2022/10/31 05:17:32;;;;;;;2.60;1.42;;;20.90;90.80;;;;;;6152369;23;45227;-69
2022/10/31 05:19:58;;;;;;;4.70;1.75;;;20.90;90.80;;;;;;6153512;23;45246;-69
2022/10/31 05:22:25;;;;;;;2.40;1.70;;;20.90;90.80;;;;;;6152787;23;45230;-69
2022/10/31 05:24:52;;;;;;;3.08;1.60;;;20.90;90.80;;;;;;6152721;23;45449;-69
2022/10/31 05:27:20;;;;;;;2.40;1.60;;;20.90;90.80;;;;;;6152715;23;45395;-69
2022/10/31 05:29:47;;;;;;;3.05;2.00;;;20.90;90.80;;;;;;6152867;23;45448;-69
2022/10/31 05:32:14;;;;;;;3.40;1.73;;;20.90;90.80;;;;;;6153173;23;45359;-69
2022/10/31 05:34:41;;;;;;;2.53;1.70;;;20.90;90.70;;;;;;6152192;23;45436;-69
2022/10/31 05:37:07;;;;;;;2.78;1.60;;;20.90;90.70;;;;;;6152571;23;45426;-69
2022/10/31 05:39:34;;;;;;;2.75;1.65;;;20.90;90.70;;;;;;6152827;23;45300;-69
2022/10/31 05:42:01;;;;;;;3.47;1.90;;;20.90;90.70;;;;;;6153049;23;45257;-68
2022/10/31 05:44:29;;;;;;;2.25;1.50;;;20.90;90.70;;;;;;6153007;23;45468;-69
2022/10/31 05:46:56;;;;;;;3.50;1.65;;;20.90;90.70;;;;;;6149941;23;45360;-68
2022/10/31 05:49:23;;;;;;;2.50;1.60;;;20.90;90.70;;;;;;6151659;23;45310;-68
2022/10/31 05:51:50;;;;;;;3.65;1.60;;;20.90;90.60;;;;;;6152580;23;45434;-69
2022/10/31 05:54:17;;;;;;;3.45;2.00;;;20.90;90.60;;;;;;6153074;23;45253;-69
2022/10/31 05:56:43;;;;;;;4.40;2.00;;;20.90;90.60;;;;;;6152260;23;45357;-69
2022/10/31 05:59:10;;;;;;;2.38;1.33;;;20.90;90.60;;;;;;6152551;23;45329;-68
2022/10/31 06:01:38;;;;;;;3.95;1.50;;;20.90;90.50;;;;;;6152946;23;45212;-69
2022/10/31 06:04:05;;;;;;;2.47;1.60;;;20.90;90.60;;;;;;6151125;23;46534;-69
2022/10/31 06:06:32;;;;;;;1.80;1.40;;;20.90;90.50;;;;;;6151170;23;45498;-69
2022/10/31 06:08:59;;;;;;;3.97;1.77;;;20.90;90.60;;;;;;6151543;23;45273;-69
2022/10/31 06:11:25;;;;;;;3.35;1.63;;;20.90;90.60;;;;;;6152238;23;45321;-69
2022/10/31 06:13:52;;;;;;;2.70;1.88;;;20.90;90.60;;;;;;6152572;23;45442;-68
2022/10/31 06:16:19;;;;;;;2.15;1.55;;;20.90;90.60;;;;;;6151249;23;45309;-69
2022/10/31 06:18:49;;;;;;;2.30;1.35;;;20.90;90.60;;;;;;6153068;23;45274;-69
2022/10/31 06:21:16;;;;;;;2.67;1.73;;;20.90;90.60;;;;;;6152362;23;45328;-69
2022/10/31 06:23:43;;;;;;;2.33;1.50;;;20.90;90.60;;;;;;6151765;23;46413;-69
2022/10/31 06:26:09;;;;;;;4.00;1.88;;;20.90;90.60;;;;;;6151855;23;45345;-68
2022/10/31 06:28:36;;;;;;;4.05;1.88;;;20.80;90.50;;;;;;6151768;23;45284;-68
2022/10/31 06:31:03;;;;;;;3.33;1.65;;;20.90;90.50;;;;;;6152572;23;45311;-69
2022/10/31 06:33:30;;;;;;;3.60;1.60;;;20.80;90.40;;;;;;6152029;23;48504;-68
2022/10/31 06:35:58;;;;;;;3.42;1.88;;;20.90;90.40;;;;;;6151829;23;45467;-69
2022/10/31 06:38:26;;;;;;;3.63;1.80;;;20.90;90.20;;;;;;6152379;23;45310;-68
2022/10/31 06:40:54;;;;;;;3.47;1.90;;;20.80;90.10;;;;;;6152329;23;45406;-68
2022/10/31 06:43:21;;;;;;;2.53;1.70;;;20.80;90.10;;;;;;6152907;23;47500;-68
2022/10/31 06:45:48;;;;;;;2.50;1.73;;;20.80;90.10;;;;;;6147992;23;45736;-68
2022/10/31 06:48:15;;;;;;;4.57;2.53;;;20.80;90.10;;;;;;6152377;23;45281;-68
2022/10/31 06:50:42;;;;;;;3.70;1.80;;;20.80;90.00;;;;;;6150625;23;45233;-69
2022/10/31 06:53:10;;;;;;;3.20;1.92;;;20.80;90.00;;;;;;6151950;23;46299;-68
2022/10/31 06:55:37;;;;;;;3.58;2.00;;;20.80;89.60;;;;;;6151691;23;45247;-69
2022/10/31 06:58:04;;;;;;;3.40;2.20;;;20.80;89.40;;;;;;6152099;23;45366;-69
2022/10/31 07:00:31;;;;;;;4.65;2.10;;;20.80;89.40;;;;;;6149956;23;45512;-69
2022/10/31 07:02:59;;;;;;;2.42;1.77;;;20.80;89.20;;;;;;6151101;23;45209;-69
2022/10/31 07:05:27;;;;;;;3.78;1.80;;;20.80;89.20;;;;;;6150123;23;45426;-69
2022/10/31 07:07:54;;;;;;;4.32;2.30;;;20.80;89.40;;;;;;6149113;23;45385;-69
2022/10/31 07:10:22;;;;;;;3.85;2.10;;;20.80;89.40;;;;;;6150945;23;45460;-69
2022/10/31 07:12:49;;;;;;;3.85;2.00;;;20.80;89.40;;;;;;6152108;23;45338;-68
2022/10/31 07:15:16;;;;;;;4.35;2.03;;;20.80;89.60;;;;;;6150910;23;45576;-68
2022/10/31 07:17:43;;;;;;;3.53;2.28;;;20.80;89.60;;;;;;6151909;23;45221;-69
2022/10/31 07:20:10;;;;;;;6.53;1.80;;;20.80;89.70;;;;;;6152731;23;45325;-68
2022/10/31 07:22:38;;;;;;;6.18;2.00;;;20.80;89.60;;;;;;6151602;23;46329;-68
2022/10/31 07:25:06;;;;;;;3.72;2.15;;;20.80;89.70;;;;;;6151906;23;45834;-69
2022/10/31 07:27:38;;;;;;;3.63;1.77;;;20.90;89.80;;;;;;6151827;23;45287;-68
2022/10/31 07:30:06;;;;;;;3.45;1.98;;;20.80;89.70;;;;;;6152488;23;45359;-68
2022/10/31 07:32:39;;;;;;;4.38;2.30;;;20.90;89.90;;;;;;6151868;23;46538;-69
2022/10/31 07:35:06;;;;;;;2.88;1.80;;;20.90;89.90;;;;;;6151418;23;46537;-69
2022/10/31 07:37:32;;;;;;;4.35;2.03;;;20.90;89.90;;;;;;6152085;23;45366;-69
2022/10/31 07:39:59;;;;;;;3.00;1.98;;;20.90;89.80;;;;;;6152420;23;45295;-69
2022/10/31 07:42:26;;;;;;;2.83;1.80;;;20.90;89.80;;;;;;6151512;23;46638;-68
2022/10/31 07:44:54;;;;;;;2.35;1.50;;;20.90;89.80;;;;;;6152179;23;45761;-68
2022/10/31 07:47:21;;;;;;;4.50;1.80;;;20.90;89.90;;;;;;6150905;23;45380;-68
2022/10/31 07:49:48;;;;;;;3.38;1.90;;;20.90;90.00;;;;;;6151658;23;45349;-68
2022/10/31 07:52:14;;;;;;;2.33;1.65;;;20.80;89.80;;;;;;6152251;23;47374;-68
2022/10/31 07:54:41;;;;;;;4.57;1.98;;;20.90;90.00;;;;;;6152075;23;45707;-68
2022/10/31 07:57:08;;;;;;;5.50;2.00;;;20.90;90.00;;;;;;6152091;23;45210;-69
2022/10/31 07:59:35;;;;;;;6.00;2.30;;;20.80;90.00;;;;;;6153019;23;45242;-68
2022/10/31 08:02:03;;;;;;;2.78;1.80;;;20.90;90.00;;;;;;6153692;23;45302;-69
2022/10/31 08:04:29;;;;;;;2.22;1.58;;;20.90;90.00;;;;;;6153695;23;45391;-69
2022/10/31 08:06:56;;;;;;;1.90;1.63;;;20.90;90.00;;;;;;6151632;23;45329;-69
2022/10/31 08:09:23;;;;;;;3.55;1.77;;;20.90;90.00;;;;;;6152944;23;45510;-68
2022/10/31 08:11:50;;;;;;;3.67;2.05;;;20.90;90.00;;;;;;6150942;23;46055;-69
2022/10/31 08:14:16;;;;;;;3.95;1.70;;;20.90;90.00;;;;;;6152863;23;45389;-69
2022/10/31 08:16:43;;;;;;;2.70;1.52;;;20.90;90.00;;;;;;6151602;23;45288;-66
2022/10/31 08:19:11;;;;;;;2.88;1.83;;;20.90;90.00;;;;;;6152316;23;45360;-69
2022/10/31 08:21:38;;;;;;;3.53;1.90;;;20.90;90.00;;;;;;6153140;23;45237;-69
2022/10/31 08:24:05;;;;;;;3.47;1.80;;;20.90;90.00;;;;;;6154209;23;45386;-69
2022/10/31 08:26:32;;;;;;;3.08;1.83;;;20.90;90.00;;;;;;6154373;23;45426;-68
2022/10/31 08:28:59;;;;;;;2.55;1.63;;;20.90;90.00;;;;;;6154714;23;45354;-69
2022/10/31 08:31:27;;;;;;;4.47;2.20;;;20.90;89.90;;;;;;6154549;23;47613;-68
2022/10/31 08:33:54;;;;;;;2.25;1.80;;;20.90;90.00;;;;;;6152166;23;45669;-69
2022/10/31 08:36:22;;;;;;;3.78;1.70;;;20.90;90.00;;;;;;6152691;23;45206;-69
2022/10/31 08:38:49;;;;;;;2.45;1.83;;;20.90;90.00;;;;;;6153936;23;45492;-69
2022/10/31 08:41:16;;;;;;;4.13;1.80;;;20.90;90.00;;;;;;6152698;23;45278;-68
2022/10/31 08:43:43;;;;;;;2.78;1.80;;;20.90;90.00;;;;;;6151340;23;45257;-69
2022/10/31 08:46:09;;;;;;;2.10;1.60;;;20.90;90.00;;;;;;6153795;23;45150;-68
2022/10/31 08:48:36;;;;;;;3.60;1.70;;;20.90;90.00;;;;;;6155349;23;45484;-68
2022/10/31 08:51:03;;;;;;;4.35;1.80;;;20.90;90.00;;;;;;6152454;23;47003;-69
2022/10/31 08:53:32;;;;;;;4.35;2.15;;;20.90;90.00;;;;;;6152628;23;45743;-69
2022/10/31 08:55:59;;;;;;;3.60;2.20;;;20.90;90.00;;;;;;6151991;23;45361;-68
2022/10/31 08:58:26;;;;;;;2.05;1.70;;;20.90;90.10;;;;;;6153075;23;45201;-68
2022/10/31 09:00:54;;;;;;;2.90;1.65;;;20.90;90.10;;;;;;6152291;23;47040;-69
2022/10/31 09:03:22;;;;;;;3.22;1.80;;;20.90;90.00;;;;;;6152988;23;45351;-68
2022/10/31 09:05:49;;;;;;;2.33;1.77;;;20.90;90.00;;;;;;6151156;23;45306;-68
2022/10/31 09:08:17;;;;;;;4.68;1.80;;;20.90;90.00;;;;;;6151324;23;45375;-68
2022/10/31 09:10:45;;;;;;;2.13;1.65;;;20.90;90.00;;;;;;6152707;23;47981;-68
2022/10/31 09:13:14;;;;;;;2.65;1.60;;;20.90;90.00;;;;;;6152521;23;46454;-69
2022/10/31 09:15:44;;;;;;;3.00;1.80;;;20.90;90.00;;;;;;6152836;23;45189;-68
2022/10/31 09:18:12;;;;;;;2.28;1.73;;;20.90;90.00;;;;;;6153216;23;45479;-68
2022/10/31 09:20:40;;;;;;;3.08;1.48;;;20.90;90.00;;;;;;6152600;23;47890;-68
2022/10/31 09:23:10;;;;;;;2.42;1.50;;;20.90;90.10;;;;;;6152420;23;45241;-69
2022/10/31 09:25:37;;;;;;;2.78;1.58;;;20.90;90.00;;;;;;6152673;23;45351;-69
2022/10/31 09:28:07;;;;;;;4.50;1.88;;;20.90;90.00;;;;;;6152948;23;45228;-68
2022/10/31 09:30:35;;;;;;;2.75;1.73;;;20.90;90.00;;;;;;6152929;23;46003;-68
2022/10/31 09:33:04;;;;;;;3.03;1.70;;;20.90;90.00;;;;;;6152425;23;45428;-69
2022/10/31 09:35:31;;;;;;;3.35;1.77;;;20.90;90.10;;;;;;6150987;23;45210;-69
2022/10/31 09:37:58;;;;;;;2.92;1.83;;;20.90;90.00;;;;;;6152447;23;45363;-69
2022/10/31 09:40:32;;;;;;;2.35;1.65;;;20.90;90.10;;;;;;6152704;23;45325;-68
2022/10/31 09:43:08;;;;;;;2.60;1.70;;;20.90;90.10;;;;;;6152634;23;45265;-68
2022/10/31 09:45:43;;;;;;;3.25;1.83;;;20.90;90.20;;;;;;6152087;23;45484;-68
2022/10/31 09:48:22;;;;;;;4.35;1.73;;;20.90;90.20;;;;;;6153152;23;45394;-68
2022/10/31 09:50:53;;;;;;;1.98;1.60;;;20.90;90.20;;;;;;6152208;23;46018;-68
2022/10/31 09:53:34;;;;;;;3.03;1.80;;;20.90;90.20;;;;;;6153107;23;45221;-68
2022/10/31 09:56:02;;;;;;;2.28;1.77;;;20.90;90.20;;;;;;6151578;23;45369;-68
2022/10/31 09:58:35;;;;;;;2.17;1.50;;;20.90;90.20;;;;;;6152923;23;45219;-68
2022/10/31 10:01:04;;;;;;;2.53;1.70;;;20.90;90.10;;;;;;6152945;23;48106;-69
2022/10/31 10:03:36;;;;;;;2.63;1.50;;;20.90;90.10;;;;;;6152255;23;45324;-68
2022/10/31 10:06:12;;;;;;;3.47;1.92;;;20.90;90.10;;;;;;6152530;23;45219;-69
2022/10/31 10:08:39;;;;;;;2.83;1.90;;;20.90;90.10;;;;;;6152656;23;45471;-69
2022/10/31 10:11:21;;;;;;;2.08;1.50;;;20.90;90.10;;;;;;6152606;23;47530;-68
2022/10/31 10:14:05;;;;;;;2.63;1.95;;;20.90;90.10;;;;;;6152547;23;45313;-68
2022/10/31 10:16:56;;;;;;;2.17;1.55;;;20.90;90.00;;;;;;6153374;23;45197;-68
2022/10/31 10:19:41;;;;;;;2.70;1.67;;;20.90;90.10;;;;;;6152976;23;45309;-69
2022/10/31 10:22:13;;;;;;;4.32;1.88;;;20.90;90.10;;;;;;6152716;23;47484;-69
2022/10/31 10:25:02;;;;;;;3.00;1.77;;;20.90;90.10;;;;;;6153759;23;45258;-68
2022/10/31 10:27:40;;;;;;;4.13;1.90;;;20.90;90.10;;;;;;6154800;23;45213;-68
2022/10/31 10:30:15;;;;;;;2.08;1.65;;;20.90;90.10;;;;;;6154119;23;45160;-68
2022/10/31 10:32:47;;;;;;;2.90;1.50;;;21.00;90.10;;;;;;6152106;23;48083;-68
2022/10/31 10:35:23;;;;;;;2.70;1.70;;;20.90;90.10;;;;;;6153898;23;45943;-69
2022/10/31 10:37:53;;;;;;;1.80;1.63;;;20.90;90.10;;;;;;6153564;23;45384;-69
2022/10/31 10:40:23;;;;;;;3.67;1.50;;;20.90;90.10;;;;;;6153308;23;45265;-68
2022/10/31 10:48:42;;;;;;;3.50;1.50;;;21.00;90.20;;;;;;6153952;23;45253;-68
2022/10/31 10:51:18;;;;;;;2.50;1.48;;;21.00;90.10;;;;;;6153722;23;45436;-68
2022/10/31 10:54:01;;;;;;;5.03;1.70;;;21.00;90.10;;;;;;6153499;23;47050;-69
2022/10/31 10:56:41;;;;;;;1.77;1.38;;;21.00;90.10;;;;;;6152978;23;45335;-68
2022/10/31 10:59:12;;;;;;;4.95;1.63;;;21.00;90.10;;;;;;6153767;23;45310;-68
2022/10/31 11:01:41;;;;;;;2.67;1.83;;;21.00;90.20;;;;;;6154471;23;45257;-68
2022/10/31 11:04:24;;;;;;;3.65;1.83;;;20.90;90.30;;;;;;6153103;23;45460;-68
2022/10/31 11:06:58;;;;;;;2.13;1.70;;;20.90;90.20;;;;;;6153013;23;45299;-69
2022/10/31 11:09:25;;;;;;;2.50;1.58;;;20.90;90.20;;;;;;6153130;23;45326;-68
2022/10/31 11:11:52;;;;;;;2.50;1.70;;;20.90;90.20;;;;;;6153998;23;45406;-68
2022/10/31 11:14:20;;;;;;;3.25;2.08;;;20.90;90.20;;;;;;6152893;23;45350;-68
2022/10/31 11:16:50;;;;;;;2.42;1.70;;;20.90;90.20;;;;;;6153251;23;46371;-68
2022/10/31 11:19:19;;;;;;;3.42;1.95;;;20.90;90.20;;;;;;6153955;23;45269;-68
2022/10/31 11:21:47;;;;;;;5.03;1.70;;;21.00;90.20;;;;;;6153509;23;45513;-68
2022/10/31 11:24:17;;;;;;;2.13;1.50;;;21.00;90.20;;;;;;6152963;23;46391;-68
2022/10/31 11:26:46;;;;;;;4.63;1.80;;;20.90;90.20;;;;;;6152245;23;45415;-69
2022/10/31 11:29:21;;;;;;;3.00;1.60;;;21.00;90.20;;;;;;6152730;23;45456;-69
2022/10/31 11:31:52;;;;;;;4.00;1.70;;;21.00;90.20;;;;;;6152032;23;45400;-68
2022/10/31 11:34:30;;;;;;;1.83;1.52;;;20.90;90.20;;;;;;6151865;23;45387;-69
2022/10/31 11:37:03;;;;;;;3.30;1.70;;;21.00;90.20;;;;;;6153219;23;45292;-68
2022/10/31 11:39:31;;;;;;;4.45;1.42;;;21.00;90.60;;;;;;6153168;23;45194;-68
2022/10/31 11:42:03;;;;;;;2.60;1.50;;;21.00;90.20;;;;;;6153751;23;45485;-68
2022/10/31 11:44:32;;;;;;;2.20;1.40;;;21.00;90.20;;;;;;6152686;23;46561;-68
2022/10/31 11:47:02;;;;;;;2.00;1.52;;;20.90;90.10;;;;;;6152714;23;45571;-68
2022/10/31 11:49:33;;;;;;;2.47;1.48;;;20.90;90.10;;;;;;6152587;23;45322;-68
2022/10/31 11:52:02;;;;;;;2.92;1.70;;;21.00;90.20;;;;;;6152431;23;45348;-68
2022/10/31 11:54:33;;;;;;;4.60;1.67;;;20.90;90.10;;;;;;6153383;23;46231;-68
2022/10/31 11:57:00;;;;;;;3.53;1.70;;;21.00;90.10;;;;;;6152574;23;45462;-69
2022/10/31 11:59:29;;;;;;;2.67;1.65;;;21.00;90.10;;;;;;6152800;23;45364;-69
2022/10/31 12:01:57;;;;;;;2.40;1.65;;;21.00;90.10;;;;;;6152618;23;45228;-68
2022/10/31 12:04:37;;;;;;;3.05;1.58;;;21.00;90.10;;;;;;6151546;23;45401;-69
2022/10/31 12:07:04;;;;;;;3.00;1.73;;;21.00;90.10;;;;;;6151241;23;45429;-69
2022/10/31 12:09:34;;;;;;;2.80;1.70;;;21.00;90.10;;;;;;6151107;23;45378;-69
2022/10/31 12:12:18;;;;;;;3.20;1.70;;;21.00;90.50;;;;;;6151631;23;45402;-69
2022/10/31 12:14:58;;;;;;;4.32;1.60;;;21.00;90.10;;;;;;6151802;23;46237;-69
2022/10/31 12:17:31;;;;;;;3.17;1.90;;;21.00;90.10;;;;;;6150835;23;45258;-68
2022/10/31 12:20:11;;;;;;;2.25;1.60;;;21.00;90.10;;;;;;6151897;23;45250;-69
2022/10/31 12:22:53;;;;;;;4.57;1.80;;;21.00;90.10;;;;;;6152806;23;45210;-68
2022/10/31 12:25:31;;;;;;;2.45;1.65;;;21.00;90.10;;;;;;6151938;23;47258;-69
2022/10/31 12:28:34;;;;;;;3.85;2.03;;;21.00;90.10;;;;;;6152755;23;45274;-69
2022/10/31 12:31:12;;;;;;;3.40;1.70;;;21.00;90.10;;;;;;6153532;23;45344;-69
2022/10/31 12:33:50;;;;;;;2.95;1.45;;;21.00;90.10;;;;;;6153310;23;45296;-68
2022/10/31 12:36:37;;;;;;;2.35;1.48;;;21.00;90.10;;;;;;6152525;23;46285;-69
2022/10/31 12:39:22;;;;;;;2.85;1.52;;;21.00;90.10;;;;;;6153353;23;45488;-69
2022/10/31 12:42:06;;;;;;;3.17;1.70;;;21.00;90.10;;;;;;6152779;23;45172;-68
2022/10/31 12:44:58;;;;;;;2.80;1.60;;;21.00;90.10;;;;;;6154964;23;45303;-68
2022/10/31 12:47:44;;;;;;;2.85;1.65;;;21.00;90.10;;;;;;6151439;23;46554;-69
2022/10/31 12:50:26;;;;;;;6.38;1.75;;;20.90;90.10;;;;;;6152803;23;45798;-68
2022/10/31 12:53:07;;;;;;;2.33;1.60;;;21.00;90.10;;;;;;6152728;23;45469;-69
2022/10/31 12:55:44;;;;;;;2.45;1.55;;;21.00;90.10;;;;;;6154029;23;45378;-68
2022/10/31 12:58:19;;;;;;;1.98;1.50;;;20.90;90.10;;;;;;6152098;23;46415;-69
2022/10/31 13:00:50;;;;;;;3.28;2.08;;;21.00;90.10;;;;;;6153107;23;45307;-68
2022/10/31 13:03:26;;;;;;;2.72;1.48;;;21.00;90.10;;;;;;6153296;23;45393;-69
2022/10/31 13:05:56;;;;;;;2.75;1.77;;;21.00;90.10;;;;;;6151140;23;45329;-68
2022/10/31 13:08:30;;;;;;;3.38;1.48;;;21.00;90.00;;;;;;6152144;23;45273;-68
2022/10/31 13:11:05;;;;;;;2.05;1.50;;;21.00;90.00;;;;;;6153626;23;45169;-68